sensor_id;sensor_type;location;lat;lon;timestamp;P1;durP1;ratioP1;P2;durP2;ratioP2
15706;SDS011;7953;54.302;10.128;2022-08-11T00:01:45;3.67;;;2.30;;
15706;SDS011;7953;54.302;10.128;2022-08-11T00:04:16;3.43;;;3.07;;
15706;SDS011;7953;54.302;10.128;2022-08-11T00:06:44;4.97;;;2.93;;
15706;SDS011;7953;54.302;10.128;2022-08-11T00:09:14;4.37;;;3.00;;
15706;SDS011;7953;54.302;10.128;2022-08-11T00:11:45;4.10;;;2.70;;
15706;SDS011;7953;54.302;10.128;2022-08-11T00:14:15;3.77;;;3.30;;
15706;SDS011;7953;54.302;10.128;2022-08-11T00:16:52;4.87;;;2.60;;
15706;SDS011;7953;54.302;10.128;2022-08-11T00:19:22;2.57;;;2.37;;
15706;SDS011;7953;54.302;10.128;2022-08-11T00:21:51;3.03;;;2.60;;
15706;SDS011;7953;54.302;10.128;2022-08-11T00:24:20;3.70;;;3.00;;
15706;SDS011;7953;54.302;10.128;2022-08-11T00:26:48;5.20;;;3.23;;
15706;SDS011;7953;54.302;10.128;2022-08-11T00:29:15;8.17;;;3.33;;
15706;SDS011;7953;54.302;10.128;2022-08-11T00:31:47;6.13;;;3.20;;
15706;SDS011;7953;54.302;10.128;2022-08-11T00:34:17;6.13;;;3.60;;
15706;SDS011;7953;54.302;10.128;2022-08-11T00:36:51;5.40;;;3.30;;
15706;SDS011;7953;54.302;10.128;2022-08-11T00:39:20;5.13;;;3.30;;
15706;SDS011;7953;54.302;10.128;2022-08-11T00:41:55;3.87;;;2.90;;
15706;SDS011;7953;54.302;10.128;2022-08-11T00:44:41;4.93;;;3.20;;
15706;SDS011;7953;54.302;10.128;2022-08-11T00:47:20;6.40;;;4.10;;
15706;SDS011;7953;54.302;10.128;2022-08-11T00:52:49;3.80;;;3.40;;
15706;SDS011;7953;54.302;10.128;2022-08-11T00:58:45;5.27;;;4.00;;
15706;SDS011;7953;54.302;10.128;2022-08-11T01:01:41;4.20;;;3.73;;
15706;SDS011;7953;54.302;10.128;2022-08-11T01:07:30;4.97;;;4.10;;
15706;SDS011;7953;54.302;10.128;2022-08-11T01:13:35;5.17;;;3.87;;
15706;SDS011;7953;54.302;10.128;2022-08-11T01:16:33;8.57;;;4.53;;
15706;SDS011;7953;54.302;10.128;2022-08-11T01:19:39;5.73;;;4.03;;
15706;SDS011;7953;54.302;10.128;2022-08-11T01:22:31;5.70;;;3.73;;
15706;SDS011;7953;54.302;10.128;2022-08-11T01:31:32;5.03;;;3.60;;
15706;SDS011;7953;54.302;10.128;2022-08-11T01:40:42;7.67;;;4.23;;
15706;SDS011;7953;54.302;10.128;2022-08-11T01:43:34;3.77;;;3.47;;
15706;SDS011;7953;54.302;10.128;2022-08-11T01:46:45;3.53;;;3.23;;
15706;SDS011;7953;54.302;10.128;2022-08-11T01:49:20;5.57;;;3.60;;
15706;SDS011;7953;54.302;10.128;2022-08-11T01:51:59;4.70;;;3.90;;
15706;SDS011;7953;54.302;10.128;2022-08-11T01:54:40;4.90;;;3.33;;
15706;SDS011;7953;54.302;10.128;2022-08-11T01:57:12;4.57;;;3.40;;
15706;SDS011;7953;54.302;10.128;2022-08-11T01:59:53;3.33;;;3.00;;
15706;SDS011;7953;54.302;10.128;2022-08-11T02:02:30;5.37;;;3.30;;
15706;SDS011;7953;54.302;10.128;2022-08-11T02:05:35;5.43;;;3.50;;
15706;SDS011;7953;54.302;10.128;2022-08-11T02:08:29;3.17;;;2.87;;
15706;SDS011;7953;54.302;10.128;2022-08-11T02:11:11;3.57;;;2.97;;
15706;SDS011;7953;54.302;10.128;2022-08-11T02:13:58;5.07;;;3.10;;
15706;SDS011;7953;54.302;10.128;2022-08-11T02:16:29;3.87;;;2.97;;
15706;SDS011;7953;54.302;10.128;2022-08-11T02:19:07;3.83;;;3.13;;
15706;SDS011;7953;54.302;10.128;2022-08-11T02:22:15;4.03;;;3.47;;
15706;SDS011;7953;54.302;10.128;2022-08-11T02:25:06;3.53;;;2.70;;
15706;SDS011;7953;54.302;10.128;2022-08-11T02:27:40;4.90;;;3.20;;
15706;SDS011;7953;54.302;10.128;2022-08-11T02:30:10;6.53;;;3.33;;
15706;SDS011;7953;54.302;10.128;2022-08-11T02:32:44;3.47;;;3.17;;
15706;SDS011;7953;54.302;10.128;2022-08-11T02:35:37;3.47;;;3.13;;
15706;SDS011;7953;54.302;10.128;2022-08-11T02:38:17;4.90;;;3.30;;
15706;SDS011;7953;54.302;10.128;2022-08-11T02:40:53;6.77;;;2.83;;
15706;SDS011;7953;54.302;10.128;2022-08-11T02:43:36;4.80;;;3.60;;
15706;SDS011;7953;54.302;10.128;2022-08-11T02:46:17;6.47;;;3.67;;
15706;SDS011;7953;54.302;10.128;2022-08-11T02:48:49;3.80;;;3.07;;
15706;SDS011;7953;54.302;10.128;2022-08-11T02:51:43;5.00;;;3.27;;
15706;SDS011;7953;54.302;10.128;2022-08-11T02:54:22;4.90;;;3.80;;
15706;SDS011;7953;54.302;10.128;2022-08-11T02:56:56;3.50;;;3.20;;
15706;SDS011;7953;54.302;10.128;2022-08-11T02:59:30;4.03;;;3.23;;
15706;SDS011;7953;54.302;10.128;2022-08-11T03:02:18;3.23;;;2.70;;
15706;SDS011;7953;54.302;10.128;2022-08-11T03:04:59;3.93;;;3.30;;
15706;SDS011;7953;54.302;10.128;2022-08-11T03:07:32;4.57;;;3.57;;
15706;SDS011;7953;54.302;10.128;2022-08-11T03:10:07;3.87;;;3.47;;
15706;SDS011;7953;54.302;10.128;2022-08-11T03:12:43;4.40;;;3.20;;
15706;SDS011;7953;54.302;10.128;2022-08-11T03:15:40;5.17;;;3.43;;
15706;SDS011;7953;54.302;10.128;2022-08-11T03:18:40;3.77;;;3.37;;
15706;SDS011;7953;54.302;10.128;2022-08-11T03:21:20;5.07;;;3.03;;
15706;SDS011;7953;54.302;10.128;2022-08-11T03:23:52;3.23;;;2.93;;
15706;SDS011;7953;54.302;10.128;2022-08-11T03:26:27;8.17;;;3.80;;
15706;SDS011;7953;54.302;10.128;2022-08-11T03:29:00;4.53;;;3.33;;
15706;SDS011;7953;54.302;10.128;2022-08-11T03:31:36;4.50;;;3.50;;
15706;SDS011;7953;54.302;10.128;2022-08-11T03:34:13;7.07;;;3.37;;
15706;SDS011;7953;54.302;10.128;2022-08-11T03:36:50;4.47;;;3.27;;
15706;SDS011;7953;54.302;10.128;2022-08-11T03:39:59;3.83;;;3.33;;
15706;SDS011;7953;54.302;10.128;2022-08-11T03:42:40;4.43;;;3.63;;
15706;SDS011;7953;54.302;10.128;2022-08-11T03:45:16;5.07;;;3.50;;
15706;SDS011;7953;54.302;10.128;2022-08-11T03:51:02;4.23;;;3.27;;
15706;SDS011;7953;54.302;10.128;2022-08-11T03:53:43;5.63;;;3.90;;
15706;SDS011;7953;54.302;10.128;2022-08-11T03:56:25;4.90;;;3.70;;
15706;SDS011;7953;54.302;10.128;2022-08-11T03:59:21;4.07;;;3.60;;
15706;SDS011;7953;54.302;10.128;2022-08-11T04:02:03;5.70;;;3.97;;
15706;SDS011;7953;54.302;10.128;2022-08-11T04:14:22;5.87;;;3.93;;
15706;SDS011;7953;54.302;10.128;2022-08-11T04:20:35;4.47;;;3.80;;
15706;SDS011;7953;54.302;10.128;2022-08-11T04:23:26;4.40;;;3.50;;
15706;SDS011;7953;54.302;10.128;2022-08-11T04:29:05;4.10;;;3.70;;
15706;SDS011;7953;54.302;10.128;2022-08-11T04:31:56;5.37;;;3.80;;
15706;SDS011;7953;54.302;10.128;2022-08-11T04:34:43;4.00;;;3.43;;
15706;SDS011;7953;54.302;10.128;2022-08-11T04:37:35;3.87;;;3.47;;
15706;SDS011;7953;54.302;10.128;2022-08-11T04:43:48;5.20;;;3.43;;
15706;SDS011;7953;54.302;10.128;2022-08-11T04:47:06;3.83;;;3.43;;
15706;SDS011;7953;54.302;10.128;2022-08-11T04:50:07;4.30;;;3.53;;
15706;SDS011;7953;54.302;10.128;2022-08-11T04:56:14;6.80;;;3.87;;
15706;SDS011;7953;54.302;10.128;2022-08-11T04:59:10;4.87;;;3.70;;
15706;SDS011;7953;54.302;10.128;2022-08-11T05:05:34;5.83;;;3.77;;
15706;SDS011;7953;54.302;10.128;2022-08-11T05:08:34;10.80;;;4.10;;
15706;SDS011;7953;54.302;10.128;2022-08-11T05:17:23;5.20;;;3.80;;
15706;SDS011;7953;54.302;10.128;2022-08-11T05:20:17;5.90;;;4.60;;
15706;SDS011;7953;54.302;10.128;2022-08-11T05:23:03;5.97;;;4.70;;
15706;SDS011;7953;54.302;10.128;2022-08-11T05:25:51;4.87;;;4.37;;
15706;SDS011;7953;54.302;10.128;2022-08-11T05:28:41;4.80;;;3.83;;
15706;SDS011;7953;54.302;10.128;2022-08-11T05:31:35;7.33;;;4.70;;
15706;SDS011;7953;54.302;10.128;2022-08-11T05:34:24;6.17;;;4.10;;
15706;SDS011;7953;54.302;10.128;2022-08-11T05:37:12;7.10;;;3.90;;
15706;SDS011;7953;54.302;10.128;2022-08-11T05:39:45;6.43;;;4.47;;
15706;SDS011;7953;54.302;10.128;2022-08-11T05:42:32;3.53;;;3.20;;
15706;SDS011;7953;54.302;10.128;2022-08-11T05:45:22;4.57;;;3.07;;
15706;SDS011;7953;54.302;10.128;2022-08-11T05:48:07;3.80;;;3.43;;
15706;SDS011;7953;54.302;10.128;2022-08-11T05:50:52;5.67;;;3.27;;
15706;SDS011;7953;54.302;10.128;2022-08-11T05:53:46;3.10;;;2.80;;
15706;SDS011;7953;54.302;10.128;2022-08-11T05:56:33;5.27;;;3.70;;
15706;SDS011;7953;54.302;10.128;2022-08-11T05:59:07;3.23;;;2.93;;
15706;SDS011;7953;54.302;10.128;2022-08-11T06:01:40;4.43;;;3.00;;
15706;SDS011;7953;54.302;10.128;2022-08-11T06:04:10;3.80;;;3.00;;
15706;SDS011;7953;54.302;10.128;2022-08-11T06:06:46;5.47;;;2.83;;
15706;SDS011;7953;54.302;10.128;2022-08-11T06:09:19;5.33;;;3.07;;
15706;SDS011;7953;54.302;10.128;2022-08-11T06:11:48;4.43;;;3.07;;
15706;SDS011;7953;54.302;10.128;2022-08-11T06:14:16;4.70;;;3.30;;
15706;SDS011;7953;54.302;10.128;2022-08-11T06:16:47;5.43;;;2.83;;
15706;SDS011;7953;54.302;10.128;2022-08-11T06:19:15;4.67;;;2.97;;
15706;SDS011;7953;54.302;10.128;2022-08-11T06:21:47;3.53;;;3.23;;
15706;SDS011;7953;54.302;10.128;2022-08-11T06:24:17;4.80;;;3.07;;
15706;SDS011;7953;54.302;10.128;2022-08-11T06:26:49;3.67;;;2.77;;
15706;SDS011;7953;54.302;10.128;2022-08-11T06:29:17;3.87;;;2.90;;
15706;SDS011;7953;54.302;10.128;2022-08-11T06:31:51;3.80;;;3.40;;
15706;SDS011;7953;54.302;10.128;2022-08-11T06:34:26;4.17;;;3.00;;
15706;SDS011;7953;54.302;10.128;2022-08-11T06:37:00;3.97;;;2.50;;
15706;SDS011;7953;54.302;10.128;2022-08-11T06:39:42;4.43;;;2.90;;
15706;SDS011;7953;54.302;10.128;2022-08-11T06:42:15;5.50;;;2.87;;
15706;SDS011;7953;54.302;10.128;2022-08-11T06:45:03;3.53;;;2.80;;
15706;SDS011;7953;54.302;10.128;2022-08-11T06:47:36;4.30;;;3.10;;
15706;SDS011;7953;54.302;10.128;2022-08-11T06:50:13;2.57;;;2.37;;
15706;SDS011;7953;54.302;10.128;2022-08-11T06:52:59;5.67;;;2.43;;
15706;SDS011;7953;54.302;10.128;2022-08-11T06:55:29;2.63;;;2.40;;
15706;SDS011;7953;54.302;10.128;2022-08-11T06:58:17;5.83;;;3.17;;
15706;SDS011;7953;54.302;10.128;2022-08-11T07:01:04;6.13;;;2.67;;
15706;SDS011;7953;54.302;10.128;2022-08-11T07:03:37;11.67;;;3.20;;
15706;SDS011;7953;54.302;10.128;2022-08-11T07:06:15;3.97;;;2.93;;
15706;SDS011;7953;54.302;10.128;2022-08-11T07:09:01;3.63;;;2.60;;
15706;SDS011;7953;54.302;10.128;2022-08-11T07:12:02;4.50;;;2.33;;
15706;SDS011;7953;54.302;10.128;2022-08-11T07:15:04;2.50;;;2.30;;
15706;SDS011;7953;54.302;10.128;2022-08-11T07:17:52;4.30;;;2.80;;
15706;SDS011;7953;54.302;10.128;2022-08-11T07:20:38;4.93;;;2.83;;
15706;SDS011;7953;54.302;10.128;2022-08-11T07:23:24;16.27;;;4.03;;
15706;SDS011;7953;54.302;10.128;2022-08-11T07:26:09;12.73;;;3.10;;
15706;SDS011;7953;54.302;10.128;2022-08-11T07:28:55;6.40;;;3.10;;
15706;SDS011;7953;54.302;10.128;2022-08-11T07:31:30;3.37;;;2.50;;
15706;SDS011;7953;54.302;10.128;2022-08-11T07:34:11;5.60;;;2.50;;
15706;SDS011;7953;54.302;10.128;2022-08-11T07:36:45;4.47;;;2.60;;
15706;SDS011;7953;54.302;10.128;2022-08-11T07:39:17;2.57;;;2.20;;
15706;SDS011;7953;54.302;10.128;2022-08-11T07:41:47;9.80;;;2.90;;
15706;SDS011;7953;54.302;10.128;2022-08-11T07:44:15;2.67;;;2.07;;
15706;SDS011;7953;54.302;10.128;2022-08-11T07:46:43;4.00;;;2.60;;
15706;SDS011;7953;54.302;10.128;2022-08-11T07:49:30;6.67;;;2.93;;
15706;SDS011;7953;54.302;10.128;2022-08-11T07:52:19;3.40;;;2.23;;
15706;SDS011;7953;54.302;10.128;2022-08-11T07:54:58;4.03;;;2.30;;
15706;SDS011;7953;54.302;10.128;2022-08-11T07:57:27;3.70;;;2.40;;
15706;SDS011;7953;54.302;10.128;2022-08-11T08:00:13;6.33;;;2.20;;
15706;SDS011;7953;54.302;10.128;2022-08-11T08:02:59;4.17;;;2.30;;
15706;SDS011;7953;54.302;10.128;2022-08-11T08:05:45;2.33;;;1.90;;
15706;SDS011;7953;54.302;10.128;2022-08-11T08:08:32;6.90;;;2.60;;
15706;SDS011;7953;54.302;10.128;2022-08-11T08:11:18;3.57;;;2.20;;
15706;SDS011;7953;54.302;10.128;2022-08-11T08:14:04;3.87;;;2.50;;
15706;SDS011;7953;54.302;10.128;2022-08-11T08:16:49;2.57;;;2.37;;
15706;SDS011;7953;54.302;10.128;2022-08-11T08:19:34;3.83;;;2.47;;
15706;SDS011;7953;54.302;10.128;2022-08-11T08:22:02;4.67;;;2.27;;
15706;SDS011;7953;54.302;10.128;2022-08-11T08:24:31;4.67;;;2.33;;
15706;SDS011;7953;54.302;10.128;2022-08-11T08:26:59;2.83;;;1.97;;
15706;SDS011;7953;54.302;10.128;2022-08-11T08:29:28;3.60;;;2.33;;
15706;SDS011;7953;54.302;10.128;2022-08-11T08:32:15;3.33;;;2.20;;
15706;SDS011;7953;54.302;10.128;2022-08-11T08:34:43;2.50;;;2.00;;
15706;SDS011;7953;54.302;10.128;2022-08-11T08:37:12;2.40;;;2.20;;
15706;SDS011;7953;54.302;10.128;2022-08-11T08:39:41;4.90;;;2.00;;
15706;SDS011;7953;54.302;10.128;2022-08-11T08:42:11;2.47;;;2.20;;
15706;SDS011;7953;54.302;10.128;2022-08-11T08:44:44;15.70;;;2.80;;
15706;SDS011;7953;54.302;10.128;2022-08-11T08:47:16;25.27;;;3.97;;
15706;SDS011;7953;54.302;10.128;2022-08-11T08:49:44;9.47;;;2.47;;
15706;SDS011;7953;54.302;10.128;2022-08-11T08:52:15;3.60;;;1.90;;
15706;SDS011;7953;54.302;10.128;2022-08-11T08:54:47;2.65;;;2.25;;
15706;SDS011;7953;54.302;10.128;2022-08-11T08:57:18;3.05;;;2.03;;
15706;SDS011;7953;54.302;10.128;2022-08-11T08:59:48;20.90;;;3.60;;
15706;SDS011;7953;54.302;10.128;2022-08-11T09:02:17;3.20;;;2.10;;
15706;SDS011;7953;54.302;10.128;2022-08-11T09:04:45;5.85;;;2.00;;
15706;SDS011;7953;54.302;10.128;2022-08-11T09:07:13;2.70;;;1.83;;
15706;SDS011;7953;54.302;10.128;2022-08-11T09:09:42;2.30;;;2.10;;
15706;SDS011;7953;54.302;10.128;2022-08-11T09:12:14;3.45;;;2.05;;
15706;SDS011;7953;54.302;10.128;2022-08-11T09:14:43;4.60;;;2.00;;
15706;SDS011;7953;54.302;10.128;2022-08-11T09:17:29;2.20;;;2.00;;
15706;SDS011;7953;54.302;10.128;2022-08-11T09:19:59;2.90;;;2.20;;
15706;SDS011;7953;54.302;10.128;2022-08-11T09:22:28;4.28;;;1.60;;
15706;SDS011;7953;54.302;10.128;2022-08-11T09:25:15;2.00;;;1.80;;
15706;SDS011;7953;54.302;10.128;2022-08-11T09:28:01;2.65;;;1.88;;
15706;SDS011;7953;54.302;10.128;2022-08-11T09:30:30;4.57;;;1.90;;
15706;SDS011;7953;54.302;10.128;2022-08-11T09:32:58;5.05;;;2.08;;
15706;SDS011;7953;54.302;10.128;2022-08-11T09:35:29;1.77;;;1.65;;
15706;SDS011;7953;54.302;10.128;2022-08-11T09:38:00;2.13;;;1.80;;
15706;SDS011;7953;54.302;10.128;2022-08-11T09:40:48;2.58;;;1.70;;
15706;SDS011;7953;54.302;10.128;2022-08-11T09:43:18;1.80;;;1.40;;
15706;SDS011;7953;54.302;10.128;2022-08-11T09:46:03;1.95;;;1.60;;
15706;SDS011;7953;54.302;10.128;2022-08-11T09:48:34;2.92;;;1.63;;
15706;SDS011;7953;54.302;10.128;2022-08-11T09:51:03;1.90;;;1.70;;
15706;SDS011;7953;54.302;10.128;2022-08-11T09:53:34;3.35;;;1.70;;
15706;SDS011;7953;54.302;10.128;2022-08-11T09:56:04;1.45;;;1.35;;
15706;SDS011;7953;54.302;10.128;2022-08-11T09:58:48;2.05;;;1.65;;
15706;SDS011;7953;54.302;10.128;2022-08-11T10:01:15;2.38;;;2.10;;
15706;SDS011;7953;54.302;10.128;2022-08-11T10:03:53;3.60;;;1.65;;
15706;SDS011;7953;54.302;10.128;2022-08-11T10:06:24;5.90;;;2.00;;
15706;SDS011;7953;54.302;10.128;2022-08-11T10:09:10;3.10;;;1.38;;
15706;SDS011;7953;54.302;10.128;2022-08-11T10:11:41;4.45;;;1.60;;
15706;SDS011;7953;54.302;10.128;2022-08-11T10:14:10;3.60;;;1.40;;
15706;SDS011;7953;54.302;10.128;2022-08-11T10:16:55;1.90;;;1.45;;
15706;SDS011;7953;54.302;10.128;2022-08-11T10:19:23;5.18;;;2.15;;
15706;SDS011;7953;54.302;10.128;2022-08-11T10:21:51;2.25;;;1.33;;
15706;SDS011;7953;54.302;10.128;2022-08-11T10:24:34;10.52;;;1.98;;
15706;SDS011;7953;54.302;10.128;2022-08-11T10:27:19;1.95;;;1.27;;
15706;SDS011;7953;54.302;10.128;2022-08-11T10:29:48;1.63;;;1.25;;
15706;SDS011;7953;54.302;10.128;2022-08-11T10:32:33;7.47;;;1.52;;
15706;SDS011;7953;54.302;10.128;2022-08-11T10:35:19;1.60;;;1.30;;
15706;SDS011;7953;54.302;10.128;2022-08-11T10:37:50;3.20;;;1.45;;
15706;SDS011;7953;54.302;10.128;2022-08-11T10:40:19;2.22;;;1.40;;
15706;SDS011;7953;54.302;10.128;2022-08-11T10:42:48;2.00;;;1.02;;
15706;SDS011;7953;54.302;10.128;2022-08-11T10:45:33;2.22;;;1.40;;
15706;SDS011;7953;54.302;10.128;2022-08-11T10:48:19;1.40;;;1.30;;
15706;SDS011;7953;54.302;10.128;2022-08-11T10:50:49;3.72;;;1.60;;
15706;SDS011;7953;54.302;10.128;2022-08-11T10:53:34;1.77;;;1.33;;
15706;SDS011;7953;54.302;10.128;2022-08-11T10:56:21;2.80;;;1.42;;
15706;SDS011;7953;54.302;10.128;2022-08-11T10:59:07;1.60;;;1.50;;
15706;SDS011;7953;54.302;10.128;2022-08-11T11:01:37;3.08;;;1.58;;
15706;SDS011;7953;54.302;10.128;2022-08-11T11:04:07;2.75;;;1.40;;
15706;SDS011;7953;54.302;10.128;2022-08-11T11:06:39;3.08;;;1.52;;
15706;SDS011;7953;54.302;10.128;2022-08-11T11:09:15;4.25;;;1.75;;
15706;SDS011;7953;54.302;10.128;2022-08-11T11:11:46;3.75;;;1.50;;
15706;SDS011;7953;54.302;10.128;2022-08-11T11:14:33;1.92;;;1.52;;
15706;SDS011;7953;54.302;10.128;2022-08-11T11:17:24;2.28;;;1.85;;
15706;SDS011;7953;54.302;10.128;2022-08-11T11:20:12;2.50;;;1.52;;
15706;SDS011;7953;54.302;10.128;2022-08-11T11:22:42;3.10;;;1.67;;
15706;SDS011;7953;54.302;10.128;2022-08-11T11:25:21;4.10;;;1.58;;
15706;SDS011;7953;54.302;10.128;2022-08-11T11:28:08;2.65;;;1.73;;
15706;SDS011;7953;54.302;10.128;2022-08-11T11:30:53;4.47;;;1.90;;
15706;SDS011;7953;54.302;10.128;2022-08-11T11:33:39;1.88;;;1.77;;
15706;SDS011;7953;54.302;10.128;2022-08-11T11:36:22;2.08;;;1.60;;
15706;SDS011;7953;54.302;10.128;2022-08-11T11:38:53;4.50;;;1.90;;
15706;SDS011;7953;54.302;10.128;2022-08-11T11:41:22;2.22;;;1.70;;
15706;SDS011;7953;54.302;10.128;2022-08-11T11:43:50;2.70;;;1.70;;
15706;SDS011;7953;54.302;10.128;2022-08-11T11:46:18;3.72;;;1.40;;
15706;SDS011;7953;54.302;10.128;2022-08-11T11:48:47;2.75;;;1.80;;
15706;SDS011;7953;54.302;10.128;2022-08-11T11:51:15;4.78;;;2.13;;
15706;SDS011;7953;54.302;10.128;2022-08-11T11:53:42;3.00;;;1.60;;
15706;SDS011;7953;54.302;10.128;2022-08-11T11:56:10;1.75;;;1.45;;
15706;SDS011;7953;54.302;10.128;2022-08-11T11:58:38;3.80;;;2.00;;
15706;SDS011;7953;54.302;10.128;2022-08-11T12:01:23;3.10;;;1.50;;
15706;SDS011;7953;54.302;10.128;2022-08-11T12:03:53;4.40;;;1.60;;
15706;SDS011;7953;54.302;10.128;2022-08-11T12:06:23;3.92;;;1.60;;
15706;SDS011;7953;54.302;10.128;2022-08-11T12:08:52;3.88;;;1.80;;
15706;SDS011;7953;54.302;10.128;2022-08-11T12:11:21;2.13;;;1.50;;
15706;SDS011;7953;54.302;10.128;2022-08-11T12:14:07;3.40;;;1.85;;
15706;SDS011;7953;54.302;10.128;2022-08-11T12:16:36;2.53;;;1.42;;
15706;SDS011;7953;54.302;10.128;2022-08-11T12:19:08;3.67;;;2.20;;
15706;SDS011;7953;54.302;10.128;2022-08-11T12:21:37;4.75;;;2.20;;
15706;SDS011;7953;54.302;10.128;2022-08-11T12:24:27;2.97;;;1.48;;
15706;SDS011;7953;54.302;10.128;2022-08-11T12:27:12;2.30;;;2.10;;
15706;SDS011;7953;54.302;10.128;2022-08-11T12:29:46;2.60;;;2.08;;
15706;SDS011;7953;54.302;10.128;2022-08-11T12:32:15;2.38;;;2.20;;
15706;SDS011;7953;54.302;10.128;2022-08-11T12:34:44;2.33;;;2.08;;
15706;SDS011;7953;54.302;10.128;2022-08-11T12:37:11;1.90;;;1.80;;
15706;SDS011;7953;54.302;10.128;2022-08-11T12:39:43;3.17;;;1.95;;
15706;SDS011;7953;54.302;10.128;2022-08-11T12:42:30;1.73;;;1.55;;
15706;SDS011;7953;54.302;10.128;2022-08-11T12:45:17;3.53;;;1.75;;
15706;SDS011;7953;54.302;10.128;2022-08-11T12:47:58;2.65;;;1.58;;
15706;SDS011;7953;54.302;10.128;2022-08-11T12:50:53;2.90;;;1.90;;
15706;SDS011;7953;54.302;10.128;2022-08-11T12:53:41;2.95;;;1.70;;
15706;SDS011;7953;54.302;10.128;2022-08-11T12:56:17;1.50;;;1.40;;
15706;SDS011;7953;54.302;10.128;2022-08-11T12:59:02;2.22;;;2.03;;
15706;SDS011;7953;54.302;10.128;2022-08-11T13:01:48;3.63;;;1.95;;
15706;SDS011;7953;54.302;10.128;2022-08-11T13:04:33;5.45;;;1.85;;
15706;SDS011;7953;54.302;10.128;2022-08-11T13:07:19;2.88;;;1.60;;
15706;SDS011;7953;54.302;10.128;2022-08-11T13:09:47;4.32;;;1.60;;
15706;SDS011;7953;54.302;10.128;2022-08-11T13:12:15;4.50;;;1.70;;
15706;SDS011;7953;54.302;10.128;2022-08-11T13:15:00;4.05;;;1.45;;
15706;SDS011;7953;54.302;10.128;2022-08-11T13:17:28;5.47;;;1.45;;
15706;SDS011;7953;54.302;10.128;2022-08-11T13:19:56;4.78;;;1.83;;
15706;SDS011;7953;54.302;10.128;2022-08-11T13:22:25;6.10;;;1.70;;
15706;SDS011;7953;54.302;10.128;2022-08-11T13:24:53;3.92;;;1.25;;
15706;SDS011;7953;54.302;10.128;2022-08-11T13:27:21;1.40;;;1.30;;
15706;SDS011;7953;54.302;10.128;2022-08-11T13:29:50;5.07;;;1.40;;
15706;SDS011;7953;54.302;10.128;2022-08-11T13:32:38;3.30;;;1.20;;
15706;SDS011;7953;54.302;10.128;2022-08-11T13:35:07;2.42;;;1.50;;
15706;SDS011;7953;54.302;10.128;2022-08-11T13:37:40;2.03;;;1.45;;
15706;SDS011;7953;54.302;10.128;2022-08-11T13:40:10;3.30;;;1.55;;
15706;SDS011;7953;54.302;10.128;2022-08-11T13:42:38;1.67;;;1.58;;
15706;SDS011;7953;54.302;10.128;2022-08-11T13:45:06;2.10;;;1.35;;
15706;SDS011;7953;54.302;10.128;2022-08-11T13:47:35;2.13;;;1.15;;
15706;SDS011;7953;54.302;10.128;2022-08-11T13:50:03;2.80;;;1.20;;
15706;SDS011;7953;54.302;10.128;2022-08-11T13:52:32;1.30;;;1.20;;
15706;SDS011;7953;54.302;10.128;2022-08-11T13:55:01;4.20;;;1.58;;
15706;SDS011;7953;54.302;10.128;2022-08-11T13:57:29;1.67;;;1.23;;
15706;SDS011;7953;54.302;10.128;2022-08-11T13:59:58;2.85;;;1.80;;
15706;SDS011;7953;54.302;10.128;2022-08-11T14:02:35;1.30;;;1.20;;
15706;SDS011;7953;54.302;10.128;2022-08-11T14:05:06;1.83;;;1.40;;
15706;SDS011;7953;54.302;10.128;2022-08-11T14:07:37;1.80;;;1.48;;
15706;SDS011;7953;54.302;10.128;2022-08-11T14:10:08;2.50;;;1.42;;
15706;SDS011;7953;54.302;10.128;2022-08-11T14:12:38;2.20;;;1.67;;
15706;SDS011;7953;54.302;10.128;2022-08-11T14:15:26;2.33;;;1.30;;
15706;SDS011;7953;54.302;10.128;2022-08-11T14:17:58;4.57;;;1.30;;
15706;SDS011;7953;54.302;10.128;2022-08-11T14:20:30;2.45;;;1.30;;
15706;SDS011;7953;54.302;10.128;2022-08-11T14:23:13;3.58;;;1.27;;
15706;SDS011;7953;54.302;10.128;2022-08-11T14:25:42;3.25;;;1.20;;
15706;SDS011;7953;54.302;10.128;2022-08-11T14:28:23;2.35;;;1.20;;
15706;SDS011;7953;54.302;10.128;2022-08-11T14:30:50;2.25;;;1.25;;
15706;SDS011;7953;54.302;10.128;2022-08-11T14:33:21;1.30;;;1.20;;
15706;SDS011;7953;54.302;10.128;2022-08-11T14:35:48;1.40;;;1.20;;
15706;SDS011;7953;54.302;10.128;2022-08-11T14:38:15;1.80;;;1.17;;
15706;SDS011;7953;54.302;10.128;2022-08-11T14:40:45;1.35;;;1.25;;
15706;SDS011;7953;54.302;10.128;2022-08-11T14:43:29;2.70;;;1.17;;
15706;SDS011;7953;54.302;10.128;2022-08-11T14:46:14;3.08;;;1.30;;
15706;SDS011;7953;54.302;10.128;2022-08-11T14:48:59;1.70;;;1.20;;
15706;SDS011;7953;54.302;10.128;2022-08-11T14:51:27;1.85;;;1.00;;
15706;SDS011;7953;54.302;10.128;2022-08-11T14:53:54;1.33;;;1.23;;
15706;SDS011;7953;54.302;10.128;2022-08-11T14:56:43;3.25;;;1.13;;
15706;SDS011;7953;54.302;10.128;2022-08-11T14:59:10;1.63;;;1.52;;
15706;SDS011;7953;54.302;10.128;2022-08-11T15:01:38;5.68;;;1.60;;
15706;SDS011;7953;54.302;10.128;2022-08-11T15:04:22;3.05;;;1.40;;
15706;SDS011;7953;54.302;10.128;2022-08-11T15:06:50;7.07;;;1.42;;
15706;SDS011;7953;54.302;10.128;2022-08-11T15:09:18;3.88;;;1.27;;
15706;SDS011;7953;54.302;10.128;2022-08-11T15:11:47;4.20;;;1.40;;
15706;SDS011;7953;54.302;10.128;2022-08-11T15:14:31;4.70;;;1.23;;
15706;SDS011;7953;54.302;10.128;2022-08-11T15:17:16;5.72;;;1.20;;
15706;SDS011;7953;54.302;10.128;2022-08-11T15:19:44;4.07;;;1.95;;
15706;SDS011;7953;54.302;10.128;2022-08-11T15:22:27;3.03;;;1.55;;
15706;SDS011;7953;54.302;10.128;2022-08-11T15:25:12;3.08;;;1.17;;
15706;SDS011;7953;54.302;10.128;2022-08-11T15:27:41;1.75;;;1.40;;
15706;SDS011;7953;54.302;10.128;2022-08-11T15:30:31;3.83;;;1.70;;
15706;SDS011;7953;54.302;10.128;2022-08-11T15:33:16;3.05;;;1.55;;
15706;SDS011;7953;54.302;10.128;2022-08-11T15:36:02;1.50;;;1.20;;
15706;SDS011;7953;54.302;10.128;2022-08-11T15:38:50;3.90;;;1.30;;
15706;SDS011;7953;54.302;10.128;2022-08-11T15:41:20;4.47;;;1.30;;
15706;SDS011;7953;54.302;10.128;2022-08-11T15:44:11;18.30;;;3.20;;
15706;SDS011;7953;54.302;10.128;2022-08-11T15:46:58;5.10;;;1.27;;
15706;SDS011;7953;54.302;10.128;2022-08-11T15:49:29;4.57;;;1.40;;
15706;SDS011;7953;54.302;10.128;2022-08-11T15:52:02;2.10;;;1.13;;
15706;SDS011;7953;54.302;10.128;2022-08-11T15:54:33;10.13;;;1.48;;
15706;SDS011;7953;54.302;10.128;2022-08-11T15:57:04;2.15;;;1.17;;
15706;SDS011;7953;54.302;10.128;2022-08-11T15:59:33;4.47;;;1.13;;
15706;SDS011;7953;54.302;10.128;2022-08-11T16:02:22;2.25;;;1.20;;
15706;SDS011;7953;54.302;10.128;2022-08-11T16:05:10;5.10;;;1.40;;
15706;SDS011;7953;54.302;10.128;2022-08-11T16:07:43;6.55;;;1.30;;
15706;SDS011;7953;54.302;10.128;2022-08-11T16:10:13;1.00;;;1.00;;
15706;SDS011;7953;54.302;10.128;2022-08-11T16:12:46;1.50;;;1.33;;
15706;SDS011;7953;54.302;10.128;2022-08-11T16:15:37;6.78;;;1.33;;
15706;SDS011;7953;54.302;10.128;2022-08-11T16:18:25;11.38;;;1.77;;
15706;SDS011;7953;54.302;10.128;2022-08-11T16:21:04;8.90;;;1.98;;
15706;SDS011;7953;54.302;10.128;2022-08-11T16:23:34;1.95;;;1.25;;
15706;SDS011;7953;54.302;10.128;2022-08-11T16:26:04;5.22;;;1.33;;
15706;SDS011;7953;54.302;10.128;2022-08-11T16:28:33;2.70;;;1.23;;
15706;SDS011;7953;54.302;10.128;2022-08-11T16:31:05;5.38;;;1.63;;
15706;SDS011;7953;54.302;10.128;2022-08-11T16:33:34;6.30;;;1.45;;
15706;SDS011;7953;54.302;10.128;2022-08-11T16:36:05;3.72;;;1.40;;
15706;SDS011;7953;54.302;10.128;2022-08-11T16:38:52;5.10;;;1.40;;
15706;SDS011;7953;54.302;10.128;2022-08-11T16:41:20;2.47;;;1.40;;
15706;SDS011;7953;54.302;10.128;2022-08-11T16:44:04;8.27;;;1.65;;
15706;SDS011;7953;54.302;10.128;2022-08-11T16:46:51;14.65;;;2.45;;
15706;SDS011;7953;54.302;10.128;2022-08-11T16:49:26;6.78;;;1.70;;
15706;SDS011;7953;54.302;10.128;2022-08-11T16:51:57;7.05;;;1.50;;
15706;SDS011;7953;54.302;10.128;2022-08-11T16:54:28;5.15;;;1.35;;